sensor_id;sensor_type;location;lat;lon;timestamp;P1;durP1;ratioP1;P2;durP2;ratioP2
15814;SDS011;8008;50.024;8.172;2023-04-24T03:01:38;1.45;;;1.20;;
15814;SDS011;8008;50.024;8.172;2023-04-24T03:04:07;1.00;;;1.00;;
15814;SDS011;8008;50.024;8.172;2023-04-24T03:06:35;1.00;;;1.00;;
15814;SDS011;8008;50.024;8.172;2023-04-24T03:09:03;1.25;;;0.93;;
15814;SDS011;8008;50.024;8.172;2023-04-24T03:11:33;0.90;;;0.90;;
15814;SDS011;8008;50.024;8.172;2023-04-24T03:14:01;1.95;;;1.00;;
15814;SDS011;8008;50.024;8.172;2023-04-24T03:16:29;1.17;;;1.10;;
15814;SDS011;8008;50.024;8.172;2023-04-24T03:18:58;1.30;;;1.20;;
15814;SDS011;8008;50.024;8.172;2023-04-24T03:21:29;2.35;;;1.20;;
15814;SDS011;8008;50.024;8.172;2023-04-24T03:23:58;1.83;;;0.98;;
15814;SDS011;8008;50.024;8.172;2023-04-24T03:26:26;0.95;;;0.95;;
15814;SDS011;8008;50.024;8.172;2023-04-24T03:29:09;1.73;;;1.00;;
15814;SDS011;8008;50.024;8.172;2023-04-24T03:31:37;1.52;;;1.20;;
15814;SDS011;8008;50.024;8.172;2023-04-24T03:34:07;1.40;;;1.30;;
15814;SDS011;8008;50.024;8.172;2023-04-24T03:36:34;2.55;;;1.02;;
15814;SDS011;8008;50.024;8.172;2023-04-24T03:39:05;1.77;;;1.20;;
15814;SDS011;8008;50.024;8.172;2023-04-24T03:41:35;1.35;;;1.10;;
15814;SDS011;8008;50.024;8.172;2023-04-24T03:44:17;1.48;;;1.25;;
15814;SDS011;8008;50.024;8.172;2023-04-24T03:46:45;2.00;;;1.25;;
15814;SDS011;8008;50.024;8.172;2023-04-24T03:49:15;1.20;;;1.20;;
15814;SDS011;8008;50.024;8.172;2023-04-24T03:51:45;1.50;;;1.40;;
15814;SDS011;8008;50.024;8.172;2023-04-24T03:54:18;1.80;;;1.20;;
15814;SDS011;8008;50.024;8.172;2023-04-24T03:56:48;1.25;;;1.20;;
15814;SDS011;8008;50.024;8.172;2023-04-24T03:59:16;1.40;;;1.30;;
15814;SDS011;8008;50.024;8.172;2023-04-24T04:01:52;1.77;;;1.35;;
15814;SDS011;8008;50.024;8.172;2023-04-24T04:04:21;1.77;;;1.30;;
15814;SDS011;8008;50.024;8.172;2023-04-24T04:06:49;2.35;;;1.40;;
15814;SDS011;8008;50.024;8.172;2023-04-24T04:09:18;1.27;;;1.23;;
15814;SDS011;8008;50.024;8.172;2023-04-24T04:11:46;2.13;;;1.40;;
15814;SDS011;8008;50.024;8.172;2023-04-24T04:14:14;3.08;;;1.50;;
15814;SDS011;8008;50.024;8.172;2023-04-24T04:16:46;1.85;;;1.40;;
15814;SDS011;8008;50.024;8.172;2023-04-24T04:19:14;1.80;;;1.50;;
15814;SDS011;8008;50.024;8.172;2023-04-24T04:21:43;3.90;;;1.85;;
15814;SDS011;8008;50.024;8.172;2023-04-24T04:24:28;1.52;;;1.42;;
15814;SDS011;8008;50.024;8.172;2023-04-24T04:26:58;2.28;;;1.65;;
15814;SDS011;8008;50.024;8.172;2023-04-24T04:29:30;2.95;;;1.70;;
15814;SDS011;8008;50.024;8.172;2023-04-24T04:32:00;3.10;;;1.95;;
15814;SDS011;8008;50.024;8.172;2023-04-24T04:34:29;2.95;;;2.05;;
15814;SDS011;8008;50.024;8.172;2023-04-24T04:36:59;1.98;;;1.88;;
15814;SDS011;8008;50.024;8.172;2023-04-24T04:39:40;2.88;;;1.77;;
15814;SDS011;8008;50.024;8.172;2023-04-24T04:42:15;3.25;;;1.80;;
15814;SDS011;8008;50.024;8.172;2023-04-24T04:44:43;2.00;;;1.75;;
15814;SDS011;8008;50.024;8.172;2023-04-24T04:47:22;2.08;;;1.88;;
15814;SDS011;8008;50.024;8.172;2023-04-24T04:49:52;3.50;;;1.88;;
15814;SDS011;8008;50.024;8.172;2023-04-24T04:52:24;3.10;;;2.15;;
15814;SDS011;8008;50.024;8.172;2023-04-24T04:55:13;2.15;;;1.95;;
15814;SDS011;8008;50.024;8.172;2023-04-24T04:57:59;3.22;;;1.88;;
15814;SDS011;8008;50.024;8.172;2023-04-24T05:00:28;2.50;;;1.90;;
15814;SDS011;8008;50.024;8.172;2023-04-24T05:03:09;2.33;;;2.13;;
15814;SDS011;8008;50.024;8.172;2023-04-24T05:05:51;3.72;;;2.00;;
15814;SDS011;8008;50.024;8.172;2023-04-24T05:08:20;2.30;;;2.10;;
15814;SDS011;8008;50.024;8.172;2023-04-24T05:10:53;3.10;;;2.10;;
15814;SDS011;8008;50.024;8.172;2023-04-24T05:13:23;2.95;;;1.90;;
15814;SDS011;8008;50.024;8.172;2023-04-24T05:16:08;2.77;;;1.90;;
15814;SDS011;8008;50.024;8.172;2023-04-24T05:18:36;2.70;;;2.25;;
15814;SDS011;8008;50.024;8.172;2023-04-24T05:21:06;2.30;;;2.10;;
15814;SDS011;8008;50.024;8.172;2023-04-24T05:23:38;2.67;;;2.20;;
15814;SDS011;8008;50.024;8.172;2023-04-24T05:26:06;2.90;;;2.05;;
15814;SDS011;8008;50.024;8.172;2023-04-24T05:28:34;4.43;;;2.28;;
15814;SDS011;8008;50.024;8.172;2023-04-24T05:31:07;2.78;;;2.40;;
15814;SDS011;8008;50.024;8.172;2023-04-24T05:33:35;2.55;;;2.35;;
15814;SDS011;8008;50.024;8.172;2023-04-24T05:36:04;3.17;;;2.60;;
15814;SDS011;8008;50.024;8.172;2023-04-24T05:38:33;2.40;;;2.20;;
15814;SDS011;8008;50.024;8.172;2023-04-24T05:41:02;2.70;;;2.50;;
15814;SDS011;8008;50.024;8.172;2023-04-24T05:43:30;5.25;;;2.50;;
15814;SDS011;8008;50.024;8.172;2023-04-24T05:45:58;6.05;;;2.83;;
15814;SDS011;8008;50.024;8.172;2023-04-24T05:48:27;7.43;;;2.60;;
15814;SDS011;8008;50.024;8.172;2023-04-24T05:50:55;4.57;;;2.67;;
15814;SDS011;8008;50.024;8.172;2023-04-24T05:53:23;2.95;;;2.60;;
15814;SDS011;8008;50.024;8.172;2023-04-24T05:55:51;4.22;;;2.80;;
15814;SDS011;8008;50.024;8.172;2023-04-24T05:58:21;3.30;;;2.73;;
15814;SDS011;8008;50.024;8.172;2023-04-24T06:00:49;3.73;;;3.00;;
15814;SDS011;8008;50.024;8.172;2023-04-24T06:03:17;5.33;;;2.80;;
15814;SDS011;8008;50.024;8.172;2023-04-24T06:05:47;3.03;;;2.72;;
15814;SDS011;8008;50.024;8.172;2023-04-24T06:08:16;2.67;;;2.38;;
15814;SDS011;8008;50.024;8.172;2023-04-24T06:10:46;3.67;;;2.80;;
15814;SDS011;8008;50.024;8.172;2023-04-24T06:13:16;3.15;;;2.85;;
15814;SDS011;8008;50.024;8.172;2023-04-24T06:16:04;2.50;;;2.30;;
15814;SDS011;8008;50.024;8.172;2023-04-24T06:18:36;3.75;;;2.60;;
15814;SDS011;8008;50.024;8.172;2023-04-24T06:21:04;4.25;;;3.08;;
15814;SDS011;8008;50.024;8.172;2023-04-24T06:23:32;7.15;;;2.70;;
15814;SDS011;8008;50.024;8.172;2023-04-24T06:26:00;3.67;;;2.88;;
15814;SDS011;8008;50.024;8.172;2023-04-24T06:28:28;3.00;;;2.60;;
15814;SDS011;8008;50.024;8.172;2023-04-24T06:30:57;5.93;;;2.60;;
15814;SDS011;8008;50.024;8.172;2023-04-24T06:33:26;3.75;;;2.50;;
15814;SDS011;8008;50.024;8.172;2023-04-24T06:35:54;3.40;;;2.33;;
15814;SDS011;8008;50.024;8.172;2023-04-24T06:38:22;2.85;;;2.55;;
15814;SDS011;8008;50.024;8.172;2023-04-24T06:40:50;2.70;;;2.50;;
15814;SDS011;8008;50.024;8.172;2023-04-24T06:43:17;2.83;;;2.35;;
15814;SDS011;8008;50.024;8.172;2023-04-24T06:45:46;3.75;;;2.63;;
15814;SDS011;8008;50.024;8.172;2023-04-24T06:48:14;3.30;;;2.58;;
15814;SDS011;8008;50.024;8.172;2023-04-24T06:50:43;2.63;;;2.42;;
15814;SDS011;8008;50.024;8.172;2023-04-24T06:53:12;3.28;;;2.60;;
15814;SDS011;8008;50.024;8.172;2023-04-24T06:55:40;3.05;;;2.50;;
15814;SDS011;8008;50.024;8.172;2023-04-24T06:58:09;3.55;;;2.70;;
15814;SDS011;8008;50.024;8.172;2023-04-24T07:00:38;4.35;;;2.60;;
15814;SDS011;8008;50.024;8.172;2023-04-24T07:03:06;2.67;;;2.28;;
15814;SDS011;8008;50.024;8.172;2023-04-24T07:05:34;4.43;;;2.55;;
15814;SDS011;8008;50.024;8.172;2023-04-24T07:08:04;5.93;;;2.30;;
15814;SDS011;8008;50.024;8.172;2023-04-24T07:10:33;2.80;;;2.60;;
15814;SDS011;8008;50.024;8.172;2023-04-24T07:13:01;4.03;;;2.65;;
15814;SDS011;8008;50.024;8.172;2023-04-24T07:15:29;4.32;;;2.50;;
15814;SDS011;8008;50.024;8.172;2023-04-24T07:17:58;5.63;;;2.22;;
15814;SDS011;8008;50.024;8.172;2023-04-24T07:20:30;2.90;;;2.40;;
15814;SDS011;8008;50.024;8.172;2023-04-24T07:22:58;2.50;;;2.30;;
15814;SDS011;8008;50.024;8.172;2023-04-24T07:25:27;2.42;;;2.22;;
15814;SDS011;8008;50.024;8.172;2023-04-24T07:27:55;3.67;;;2.40;;
15814;SDS011;8008;50.024;8.172;2023-04-24T07:30:23;3.33;;;2.40;;
15814;SDS011;8008;50.024;8.172;2023-04-24T07:32:51;2.97;;;2.42;;
15814;SDS011;8008;50.024;8.172;2023-04-24T07:35:19;3.88;;;2.42;;
15814;SDS011;8008;50.024;8.172;2023-04-24T07:37:47;3.45;;;2.40;;
15814;SDS011;8008;50.024;8.172;2023-04-24T07:40:15;3.28;;;2.40;;
15814;SDS011;8008;50.024;8.172;2023-04-24T07:42:44;3.30;;;2.50;;
15814;SDS011;8008;50.024;8.172;2023-04-24T07:45:14;3.90;;;2.28;;
15814;SDS011;8008;50.024;8.172;2023-04-24T07:47:43;2.72;;;2.25;;
15814;SDS011;8008;50.024;8.172;2023-04-24T07:50:12;2.78;;;2.40;;
15814;SDS011;8008;50.024;8.172;2023-04-24T07:52:40;3.22;;;2.58;;
15814;SDS011;8008;50.024;8.172;2023-04-24T07:55:08;2.65;;;2.45;;
15814;SDS011;8008;50.024;8.172;2023-04-24T07:57:36;4.18;;;2.78;;
15814;SDS011;8008;50.024;8.172;2023-04-24T08:00:06;3.15;;;2.50;;
15814;SDS011;8008;50.024;8.172;2023-04-24T08:02:38;5.97;;;2.20;;
15814;SDS011;8008;50.024;8.172;2023-04-24T08:05:06;4.32;;;2.25;;
15814;SDS011;8008;50.024;8.172;2023-04-24T08:07:35;3.10;;;2.35;;
15814;SDS011;8008;50.024;8.172;2023-04-24T08:10:03;2.60;;;2.40;;
15814;SDS011;8008;50.024;8.172;2023-04-24T08:12:31;3.75;;;2.63;;
15814;SDS011;8008;50.024;8.172;2023-04-24T08:15:00;2.92;;;2.50;;
15814;SDS011;8008;50.024;8.172;2023-04-24T08:17:29;9.00;;;2.60;;
15814;SDS011;8008;50.024;8.172;2023-04-24T08:20:00;3.72;;;2.15;;
15814;SDS011;8008;50.024;8.172;2023-04-24T08:22:28;2.88;;;2.50;;
15814;SDS011;8008;50.024;8.172;2023-04-24T08:24:56;2.78;;;2.40;;
15814;SDS011;8008;50.024;8.172;2023-04-24T08:27:25;2.97;;;2.33;;
15814;SDS011;8008;50.024;8.172;2023-04-24T08:29:53;3.58;;;2.60;;
15814;SDS011;8008;50.024;8.172;2023-04-24T08:32:21;3.88;;;2.20;;
15814;SDS011;8008;50.024;8.172;2023-04-24T08:34:51;2.78;;;2.30;;
15814;SDS011;8008;50.024;8.172;2023-04-24T08:37:19;2.40;;;2.20;;
15814;SDS011;8008;50.024;8.172;2023-04-24T08:39:47;2.20;;;2.10;;
15814;SDS011;8008;50.024;8.172;2023-04-24T08:42:16;3.55;;;2.03;;
15814;SDS011;8008;50.024;8.172;2023-04-24T08:44:45;2.40;;;2.20;;
15814;SDS011;8008;50.024;8.172;2023-04-24T08:47:13;3.10;;;2.17;;
15814;SDS011;8008;50.024;8.172;2023-04-24T08:49:43;2.30;;;2.08;;
15814;SDS011;8008;50.024;8.172;2023-04-24T08:52:13;2.95;;;2.22;;
15814;SDS011;8008;50.024;8.172;2023-04-24T08:54:42;2.63;;;2.10;;
15814;SDS011;8008;50.024;8.172;2023-04-24T08:57:12;2.47;;;2.05;;
15814;SDS011;8008;50.024;8.172;2023-04-24T08:59:41;4.32;;;1.98;;
15814;SDS011;8008;50.024;8.172;2023-04-24T09:02:10;2.33;;;2.10;;
15814;SDS011;8008;50.024;8.172;2023-04-24T09:04:40;2.10;;;1.90;;
15814;SDS011;8008;50.024;8.172;2023-04-24T09:07:08;2.63;;;1.95;;
15814;SDS011;8008;50.024;8.172;2023-04-24T09:09:40;4.68;;;2.25;;
15814;SDS011;8008;50.024;8.172;2023-04-24T09:12:09;2.97;;;2.20;;
15814;SDS011;8008;50.024;8.172;2023-04-24T09:14:37;2.20;;;1.90;;
15814;SDS011;8008;50.024;8.172;2023-04-24T09:17:08;3.90;;;2.00;;
15814;SDS011;8008;50.024;8.172;2023-04-24T09:19:37;3.38;;;1.73;;
15814;SDS011;8008;50.024;8.172;2023-04-24T09:22:05;4.75;;;1.90;;
15814;SDS011;8008;50.024;8.172;2023-04-24T09:24:34;3.38;;;1.83;;
15814;SDS011;8008;50.024;8.172;2023-04-24T09:27:03;2.05;;;1.88;;
15814;SDS011;8008;50.024;8.172;2023-04-24T09:29:31;2.72;;;1.95;;
15814;SDS011;8008;50.024;8.172;2023-04-24T09:31:59;1.90;;;1.80;;
15814;SDS011;8008;50.024;8.172;2023-04-24T09:34:46;1.73;;;1.63;;
15814;SDS011;8008;50.024;8.172;2023-04-24T09:37:25;2.33;;;1.90;;
15814;SDS011;8008;50.024;8.172;2023-04-24T09:40:07;2.05;;;1.77;;
15814;SDS011;8008;50.024;8.172;2023-04-24T09:42:38;2.85;;;2.08;;
15814;SDS011;8008;50.024;8.172;2023-04-24T09:45:09;1.88;;;1.70;;
15814;SDS011;8008;50.024;8.172;2023-04-24T09:47:41;1.83;;;1.73;;
15814;SDS011;8008;50.024;8.172;2023-04-24T09:50:10;3.17;;;1.75;;
15814;SDS011;8008;50.024;8.172;2023-04-24T09:52:45;1.90;;;1.70;;
15814;SDS011;8008;50.024;8.172;2023-04-24T09:55:15;2.00;;;1.80;;
15814;SDS011;8008;50.024;8.172;2023-04-24T09:57:53;3.33;;;1.75;;
15814;SDS011;8008;50.024;8.172;2023-04-24T10:00:21;2.45;;;1.60;;
15814;SDS011;8008;50.024;8.172;2023-04-24T10:02:54;1.70;;;1.60;;
15814;SDS011;8008;50.024;8.172;2023-04-24T10:05:23;1.75;;;1.65;;
15814;SDS011;8008;50.024;8.172;2023-04-24T10:07:55;3.53;;;1.90;;
15814;SDS011;8008;50.024;8.172;2023-04-24T10:10:24;1.88;;;1.73;;
15814;SDS011;8008;50.024;8.172;2023-04-24T10:12:54;1.63;;;1.50;;
15814;SDS011;8008;50.024;8.172;2023-04-24T10:15:22;1.73;;;1.63;;
15814;SDS011;8008;50.024;8.172;2023-04-24T10:17:51;2.08;;;1.90;;
15814;SDS011;8008;50.024;8.172;2023-04-24T10:20:20;2.55;;;2.15;;
15814;SDS011;8008;50.024;8.172;2023-04-24T10:22:48;1.80;;;1.70;;
15814;SDS011;8008;50.024;8.172;2023-04-24T10:25:18;2.88;;;2.13;;
15814;SDS011;8008;50.024;8.172;2023-04-24T10:27:48;2.33;;;2.00;;
15814;SDS011;8008;50.024;8.172;2023-04-24T10:30:18;3.63;;;1.60;;
15814;SDS011;8008;50.024;8.172;2023-04-24T10:32:47;1.27;;;1.17;;
15814;SDS011;8008;50.024;8.172;2023-04-24T10:35:15;1.85;;;1.27;;
15814;SDS011;8008;50.024;8.172;2023-04-24T10:37:47;1.30;;;1.20;;
15814;SDS011;8008;50.024;8.172;2023-04-24T10:40:18;1.02;;;1.02;;
15814;SDS011;8008;50.024;8.172;2023-04-24T10:42:53;1.20;;;1.10;;
15814;SDS011;8008;50.024;8.172;2023-04-24T10:45:25;0.90;;;0.90;;
15814;SDS011;8008;50.024;8.172;2023-04-24T10:47:56;2.38;;;1.30;;
15814;SDS011;8008;50.024;8.172;2023-04-24T10:50:26;1.33;;;1.13;;
15814;SDS011;8008;50.024;8.172;2023-04-24T10:53:04;1.40;;;1.30;;
15814;SDS011;8008;50.024;8.172;2023-04-24T10:55:40;1.60;;;1.50;;
15814;SDS011;8008;50.024;8.172;2023-04-24T10:58:10;2.35;;;1.40;;
15814;SDS011;8008;50.024;8.172;2023-04-24T11:00:40;1.70;;;1.60;;
15814;SDS011;8008;50.024;8.172;2023-04-24T11:03:22;1.75;;;1.55;;
15814;SDS011;8008;50.024;8.172;2023-04-24T11:05:53;3.83;;;1.35;;
15814;SDS011;8008;50.024;8.172;2023-04-24T11:08:24;2.15;;;1.45;;
15814;SDS011;8008;50.024;8.172;2023-04-24T11:11:15;1.25;;;1.15;;
15814;SDS011;8008;50.024;8.172;2023-04-24T11:14:05;2.08;;;1.50;;
15814;SDS011;8008;50.024;8.172;2023-04-24T11:16:43;2.45;;;1.75;;
15814;SDS011;8008;50.024;8.172;2023-04-24T11:19:18;1.98;;;1.50;;
15814;SDS011;8008;50.024;8.172;2023-04-24T11:21:54;2.83;;;1.60;;
15814;SDS011;8008;50.024;8.172;2023-04-24T11:24:23;1.58;;;1.48;;
15814;SDS011;8008;50.024;8.172;2023-04-24T11:26:57;1.90;;;1.40;;
15814;SDS011;8008;50.024;8.172;2023-04-24T11:29:44;1.20;;;1.10;;
15814;SDS011;8008;50.024;8.172;2023-04-24T11:32:16;1.63;;;1.23;;
15814;SDS011;8008;50.024;8.172;2023-04-24T11:34:46;1.60;;;1.50;;
15814;SDS011;8008;50.024;8.172;2023-04-24T11:37:15;1.45;;;1.35;;
15814;SDS011;8008;50.024;8.172;2023-04-24T11:39:43;1.83;;;1.67;;
15814;SDS011;8008;50.024;8.172;2023-04-24T11:42:12;3.83;;;1.75;;
15814;SDS011;8008;50.024;8.172;2023-04-24T11:44:42;1.88;;;1.70;;
15814;SDS011;8008;50.024;8.172;2023-04-24T11:47:10;7.10;;;2.10;;
15814;SDS011;8008;50.024;8.172;2023-04-24T11:49:39;1.90;;;1.77;;
15814;SDS011;8008;50.024;8.172;2023-04-24T11:52:07;2.85;;;2.00;;
15814;SDS011;8008;50.024;8.172;2023-04-24T11:54:35;2.25;;;1.88;;
15814;SDS011;8008;50.024;8.172;2023-04-24T11:57:04;3.30;;;2.22;;
15814;SDS011;8008;50.024;8.172;2023-04-24T11:59:35;3.85;;;2.20;;
15814;SDS011;8008;50.024;8.172;2023-04-24T12:02:04;2.80;;;2.20;;
15814;SDS011;8008;50.024;8.172;2023-04-24T12:04:40;3.10;;;2.03;;
15814;SDS011;8008;50.024;8.172;2023-04-24T12:07:09;3.92;;;2.33;;
15814;SDS011;8008;50.024;8.172;2023-04-24T12:09:40;2.67;;;2.38;;
15814;SDS011;8008;50.024;8.172;2023-04-24T12:12:10;5.20;;;2.70;;
15814;SDS011;8008;50.024;8.172;2023-04-24T12:14:47;6.93;;;3.15;;
15814;SDS011;8008;50.024;8.172;2023-04-24T12:17:16;3.88;;;2.90;;
15814;SDS011;8008;50.024;8.172;2023-04-24T12:19:46;3.80;;;2.80;;
15814;SDS011;8008;50.024;8.172;2023-04-24T12:22:15;6.90;;;3.63;;
15814;SDS011;8008;50.024;8.172;2023-04-24T12:24:55;4.95;;;2.70;;
15814;SDS011;8008;50.024;8.172;2023-04-24T12:27:24;2.58;;;2.38;;
15814;SDS011;8008;50.024;8.172;2023-04-24T12:29:52;4.15;;;2.88;;
15814;SDS011;8008;50.024;8.172;2023-04-24T12:32:21;2.63;;;2.42;;
15814;SDS011;8008;50.024;8.172;2023-04-24T12:34:52;3.22;;;2.50;;
15814;SDS011;8008;50.024;8.172;2023-04-24T12:37:22;3.13;;;2.50;;
15814;SDS011;8008;50.024;8.172;2023-04-24T12:40:01;6.38;;;3.28;;
15814;SDS011;8008;50.024;8.172;2023-04-24T12:42:30;5.28;;;2.83;;
15814;SDS011;8008;50.024;8.172;2023-04-24T12:44:59;3.67;;;2.63;;
15814;SDS011;8008;50.024;8.172;2023-04-24T12:47:28;4.20;;;2.55;;
15814;SDS011;8008;50.024;8.172;2023-04-24T12:49:58;2.90;;;2.70;;
15814;SDS011;8008;50.024;8.172;2023-04-24T12:52:27;3.97;;;2.53;;
15814;SDS011;8008;50.024;8.172;2023-04-24T12:54:56;4.60;;;3.08;;
15814;SDS011;8008;50.024;8.172;2023-04-24T12:57:25;4.18;;;2.70;;
15814;SDS011;8008;50.024;8.172;2023-04-24T12:59:54;5.95;;;2.67;;
15814;SDS011;8008;50.024;8.172;2023-04-24T13:02:22;3.55;;;2.38;;
15814;SDS011;8008;50.024;8.172;2023-04-24T13:04:51;3.22;;;2.55;;
15814;SDS011;8008;50.024;8.172;2023-04-24T13:07:21;2.40;;;2.20;;
15814;SDS011;8008;50.024;8.172;2023-04-24T13:09:49;5.32;;;2.38;;
15814;SDS011;8008;50.024;8.172;2023-04-24T13:12:18;4.60;;;2.80;;
15814;SDS011;8008;50.024;8.172;2023-04-24T13:14:46;3.33;;;2.50;;
15814;SDS011;8008;50.024;8.172;2023-04-24T13:17:14;3.83;;;2.55;;
15814;SDS011;8008;50.024;8.172;2023-04-24T13:19:43;3.50;;;2.65;;
15814;SDS011;8008;50.024;8.172;2023-04-24T13:22:12;3.33;;;2.80;;
15814;SDS011;8008;50.024;8.172;2023-04-24T13:24:41;5.85;;;2.92;;
15814;SDS011;8008;50.024;8.172;2023-04-24T13:27:09;4.55;;;3.30;;
15814;SDS011;8008;50.024;8.172;2023-04-24T13:29:38;4.75;;;3.40;;
15814;SDS011;8008;50.024;8.172;2023-04-24T13:32:06;3.38;;;3.00;;
15814;SDS011;8008;50.024;8.172;2023-04-24T13:34:35;5.30;;;2.80;;
15814;SDS011;8008;50.024;8.172;2023-04-24T13:37:03;3.97;;;2.97;;
15814;SDS011;8008;50.024;8.172;2023-04-24T13:39:31;5.88;;;3.00;;
15814;SDS011;8008;50.024;8.172;2023-04-24T13:42:01;3.42;;;2.90;;
15814;SDS011;8008;50.024;8.172;2023-04-24T13:44:30;4.63;;;3.00;;
15814;SDS011;8008;50.024;8.172;2023-04-24T13:46:58;3.97;;;2.75;;
15814;SDS011;8008;50.024;8.172;2023-04-24T13:49:27;2.95;;;2.70;;
15814;SDS011;8008;50.024;8.172;2023-04-24T13:51:55;3.95;;;2.70;;
15814;SDS011;8008;50.024;8.172;2023-04-24T13:54:24;4.55;;;2.97;;
15814;SDS011;8008;50.024;8.172;2023-04-24T13:56:52;3.25;;;2.92;;
15814;SDS011;8008;50.024;8.172;2023-04-24T13:59:21;4.97;;;2.58;;
15814;SDS011;8008;50.024;8.172;2023-04-24T14:01:49;4.07;;;2.53;;
15814;SDS011;8008;50.024;8.172;2023-04-24T14:04:17;6.13;;;3.00;;
15814;SDS011;8008;50.024;8.172;2023-04-24T14:06:45;3.28;;;2.67;;
15814;SDS011;8008;50.024;8.172;2023-04-24T14:09:13;4.38;;;2.65;;
15814;SDS011;8008;50.024;8.172;2023-04-24T14:11:41;3.50;;;2.90;;
15814;SDS011;8008;50.024;8.172;2023-04-24T14:14:10;3.65;;;2.80;;
15814;SDS011;8008;50.024;8.172;2023-04-24T14:16:39;6.90;;;2.90;;
15814;SDS011;8008;50.024;8.172;2023-04-24T14:19:07;3.35;;;2.75;;
15814;SDS011;8008;50.024;8.172;2023-04-24T14:21:35;3.58;;;2.97;;
15814;SDS011;8008;50.024;8.172;2023-04-24T14:24:02;7.85;;;3.00;;
15814;SDS011;8008;50.024;8.172;2023-04-24T14:26:30;6.00;;;2.78;;
15814;SDS011;8008;50.024;8.172;2023-04-24T14:28:59;6.50;;;3.10;;
15814;SDS011;8008;50.024;8.172;2023-04-24T14:31:29;4.35;;;3.08;;
15814;SDS011;8008;50.024;8.172;2023-04-24T14:33:59;3.65;;;2.72;;
15814;SDS011;8008;50.024;8.172;2023-04-24T14:36:26;4.47;;;2.88;;
15814;SDS011;8008;50.024;8.172;2023-04-24T14:38:54;2.90;;;2.70;;
15814;SDS011;8008;50.024;8.172;2023-04-24T14:41:22;4.50;;;2.70;;
15814;SDS011;8008;50.024;8.172;2023-04-24T14:43:50;4.05;;;2.78;;
15814;SDS011;8008;50.024;8.172;2023-04-24T14:46:18;5.85;;;2.40;;
15814;SDS011;8008;50.024;8.172;2023-04-24T14:48:47;6.32;;;2.67;;
15814;SDS011;8008;50.024;8.172;2023-04-24T14:51:16;4.38;;;2.58;;
15814;SDS011;8008;50.024;8.172;2023-04-24T14:53:44;4.72;;;2.50;;
15814;SDS011;8008;50.024;8.172;2023-04-24T14:56:13;5.22;;;3.05;;
15814;SDS011;8008;50.024;8.172;2023-04-24T14:58:41;3.60;;;2.60;;
15814;SDS011;8008;50.024;8.172;2023-04-24T15:01:09;2.88;;;2.55;;
15814;SDS011;8008;50.024;8.172;2023-04-24T15:03:38;3.03;;;2.63;;
15814;SDS011;8008;50.024;8.172;2023-04-24T15:06:06;3.78;;;2.90;;
15814;SDS011;8008;50.024;8.172;2023-04-24T15:08:35;3.88;;;2.72;;
15814;SDS011;8008;50.024;8.172;2023-04-24T15:11:03;5.00;;;2.60;;
15814;SDS011;8008;50.024;8.172;2023-04-24T15:13:31;3.33;;;2.88;;
15814;SDS011;8008;50.024;8.172;2023-04-24T15:15:59;3.55;;;2.92;;
15814;SDS011;8008;50.024;8.172;2023-04-24T15:18:28;3.28;;;2.63;;
15814;SDS011;8008;50.024;8.172;2023-04-24T15:20:56;4.90;;;2.55;;
15814;SDS011;8008;50.024;8.172;2023-04-24T15:23:24;5.18;;;2.75;;
15814;SDS011;8008;50.024;8.172;2023-04-24T15:25:53;3.20;;;2.60;;
15814;SDS011;8008;50.024;8.172;2023-04-24T15:28:22;4.57;;;2.75;;
15814;SDS011;8008;50.024;8.172;2023-04-24T15:30:50;4.13;;;2.80;;
15814;SDS011;8008;50.024;8.172;2023-04-24T15:33:18;4.18;;;2.65;;
15814;SDS011;8008;50.024;8.172;2023-04-24T15:35:46;4.30;;;3.00;;
15814;SDS011;8008;50.024;8.172;2023-04-24T15:38:14;4.53;;;2.83;;
15814;SDS011;8008;50.024;8.172;2023-04-24T15:40:42;4.32;;;3.10;;
15814;SDS011;8008;50.024;8.172;2023-04-24T15:43:12;6.03;;;3.45;;
15814;SDS011;8008;50.024;8.172;2023-04-24T15:45:40;6.50;;;3.20;;
15814;SDS011;8008;50.024;8.172;2023-04-24T15:48:08;4.32;;;2.90;;
15814;SDS011;8008;50.024;8.172;2023-04-24T15:50:36;6.10;;;3.08;;
15814;SDS011;8008;50.024;8.172;2023-04-24T15:53:04;4.68;;;3.03;;
15814;SDS011;8008;50.024;8.172;2023-04-24T15:55:32;4.47;;;3.00;;
15814;SDS011;8008;50.024;8.172;2023-04-24T15:58:00;7.57;;;3.30;;
15814;SDS011;8008;50.024;8.172;2023-04-24T16:00:30;3.92;;;3.05;;
15814;SDS011;8008;50.024;8.172;2023-04-24T16:03:00;4.93;;;3.15;;
15814;SDS011;8008;50.024;8.172;2023-04-24T16:05:29;8.88;;;6.15;;
15814;SDS011;8008;50.024;8.172;2023-04-24T16:07:57;9.65;;;5.97;;
15814;SDS011;8008;50.024;8.172;2023-04-24T16:10:25;9.70;;;5.10;;
15814;SDS011;8008;50.024;8.172;2023-04-24T16:12:53;4.72;;;3.38;;
15814;SDS011;8008;50.024;8.172;2023-04-24T16:15:21;3.92;;;3.30;;
15814;SDS011;8008;50.024;8.172;2023-04-24T16:17:50;4.90;;;2.70;;
15814;SDS011;8008;50.024;8.172;2023-04-24T16:20:18;3.40;;;2.92;;
15814;SDS011;8008;50.024;8.172;2023-04-24T16:22:46;4.63;;;3.20;;
15814;SDS011;8008;50.024;8.172;2023-04-24T16:25:14;3.13;;;2.70;;
15814;SDS011;8008;50.024;8.172;2023-04-24T16:27:41;5.85;;;2.90;;
15814;SDS011;8008;50.024;8.172;2023-04-24T16:30:10;3.42;;;2.40;;
15814;SDS011;8008;50.024;8.172;2023-04-24T16:32:38;4.35;;;2.90;;
15814;SDS011;8008;50.024;8.172;2023-04-24T16:35:07;3.35;;;2.63;;
15814;SDS011;8008;50.024;8.172;2023-04-24T16:37:35;2.78;;;2.58;;
15814;SDS011;8008;50.024;8.172;2023-04-24T16:40:04;3.65;;;2.50;;
15814;SDS011;8008;50.024;8.172;2023-04-24T16:42:36;3.05;;;2.42;;
15814;SDS011;8008;50.024;8.172;2023-04-24T16:45:04;2.75;;;2.47;;
15814;SDS011;8008;50.024;8.172;2023-04-24T16:47:34;5.50;;;3.00;;
15814;SDS011;8008;50.024;8.172;2023-04-24T16:50:02;5.80;;;3.10;;
15814;SDS011;8008;50.024;8.172;2023-04-24T16:52:31;4.60;;;2.60;;
15814;SDS011;8008;50.024;8.172;2023-04-24T16:54:59;2.60;;;2.40;;
15814;SDS011;8008;50.024;8.172;2023-04-24T16:57:27;4.15;;;2.80;;
15814;SDS011;8008;50.024;8.172;2023-04-24T16:59:55;2.67;;;2.40;;
15814;SDS011;8008;50.024;8.172;2023-04-24T17:02:23;3.70;;;2.63;;
15814;SDS011;8008;50.024;8.172;2023-04-24T17:04:51;3.70;;;2.88;;
15814;SDS011;8008;50.024;8.172;2023-04-24T17:07:20;5.35;;;2.95;;
15814;SDS011;8008;50.024;8.172;2023-04-24T17:09:50;5.13;;;3.95;;
15814;SDS011;8008;50.024;8.172;2023-04-24T17:12:17;6.65;;;3.25;;
15814;SDS011;8008;50.024;8.172;2023-04-24T17:14:45;5.90;;;4.40;;
15814;SDS011;8008;50.024;8.172;2023-04-24T17:17:13;5.55;;;3.90;;
15814;SDS011;8008;50.024;8.172;2023-04-24T17:19:41;3.63;;;3.10;;
15814;SDS011;8008;50.024;8.172;2023-04-24T17:22:09;3.10;;;2.80;;
15814;SDS011;8008;50.024;8.172;2023-04-24T17:24:37;3.28;;;2.97;;
15814;SDS011;8008;50.024;8.172;2023-04-24T17:27:07;4.70;;;3.00;;
15814;SDS011;8008;50.024;8.172;2023-04-24T17:29:40;3.95;;;2.80;;
15814;SDS011;8008;50.024;8.172;2023-04-24T17:32:08;4.03;;;2.90;;
15814;SDS011;8008;50.024;8.172;2023-04-24T17:34:36;5.53;;;3.50;;
15814;SDS011;8008;50.024;8.172;2023-04-24T17:37:04;4.10;;;3.33;;
15814;SDS011;8008;50.024;8.172;2023-04-24T17:39:32;3.80;;;3.17;;
15814;SDS011;8008;50.024;8.172;2023-04-24T17:42:00;5.80;;;3.17;;
15814;SDS011;8008;50.024;8.172;2023-04-24T17:44:29;3.97;;;3.05;;
15814;SDS011;8008;50.024;8.172;2023-04-24T17:46:57;4.88;;;3.33;;
15814;SDS011;8008;50.024;8.172;2023-04-24T17:49:25;5.50;;;3.40;;
15814;SDS011;8008;50.024;8.172;2023-04-24T17:51:53;4.47;;;3.67;;
15814;SDS011;8008;50.024;8.172;2023-04-24T17:54:21;5.20;;;3.35;;
15814;SDS011;8008;50.024;8.172;2023-04-24T17:56:49;5.63;;;3.50;;
15814;SDS011;8008;50.024;8.172;2023-04-24T17:59:18;5.20;;;3.72;;
15814;SDS011;8008;50.024;8.172;2023-04-24T18:01:47;5.68;;;4.00;;
15814;SDS011;8008;50.024;8.172;2023-04-24T18:04:15;3.92;;;3.33;;
15814;SDS011;8008;50.024;8.172;2023-04-24T18:06:43;6.07;;;3.60;;
15814;SDS011;8008;50.024;8.172;2023-04-24T18:09:11;4.65;;;3.95;;
15814;SDS011;8008;50.024;8.172;2023-04-24T18:11:41;4.68;;;3.53;;
15814;SDS011;8008;50.024;8.172;2023-04-24T18:14:09;6.00;;;3.75;;
15814;SDS011;8008;50.024;8.172;2023-04-24T18:16:36;4.90;;;3.63;;